Time;durP1;ratioP1;P1;durP2;ratioP2;P2;SDS_P1;SDS_P2;PMS_P1;PMS_P2;Temp;Humidity;BMP_temperature;BMP_pressure;BME280_temperature;BME280_humidity;BME280_pressure;Samples;Min_cycle;Max_cycle;Signal;HPM_P1;HPM_P2
2022/10/31 00:01:00;;;;;;;0.70;0.70;;;;;;;0.98;57.85;97351.38;5071853;28;20067;-68
2022/10/31 00:03:26;;;;;;;5.20;0.95;;;;;;;0.97;58.07;97342.75;5054290;28;20185;-69
2022/10/31 00:05:52;;;;;;;1.08;0.70;;;;;;;0.96;57.79;97351.56;5020699;28;20505;-69
2022/10/31 00:08:18;;;;;;;1.67;0.75;;;;;;;0.75;58.18;97339.88;5071811;28;20048;-68
2022/10/31 00:10:45;;;;;;;2.25;0.82;;;;;;;0.82;57.92;97337.94;5053732;28;20072;-69
2022/10/31 00:13:12;;;;;;;1.55;0.77;;;;;;;0.82;58.23;97339.75;5071813;28;20044;-68
2022/10/31 00:15:39;;;;;;;0.80;0.80;;;;;;;0.81;57.93;97331.16;5053856;28;20161;-68
2022/10/31 00:18:06;;;;;;;0.70;0.70;;;;;;;0.84;58.19;97338.53;5053118;28;20047;-69
2022/10/31 00:20:31;;;;;;;0.57;0.57;;;;;;;0.80;58.53;97341.81;5053617;28;20048;-68
2022/10/31 00:22:59;;;;;;;2.80;1.30;;;;;;;0.80;58.21;97334.78;5053285;28;20041;-70
2022/10/31 00:25:26;;;;;;;2.38;0.80;;;;;;;0.76;58.79;97325.81;5020760;28;20040;-68
2022/10/31 00:27:51;;;;;;;0.63;0.63;;;;;;;0.70;57.92;97320.69;5053049;28;20049;-69
2022/10/31 00:30:17;;;;;;;1.15;0.82;;;;;;;0.80;58.79;97339.22;5037162;28;20043;-69
2022/10/31 00:32:43;;;;;;;1.55;1.00;;;;;;;0.82;58.21;97331.94;5053253;28;20136;-68
2022/10/31 00:35:09;;;;;;;1.17;0.80;;;;;;;0.79;58.27;97325.34;5036693;28;20072;-69
2022/10/31 00:37:35;;;;;;;2.30;0.77;;;;;;;0.93;58.54;97327.75;5036415;28;20162;-69
2022/10/31 00:40:01;;;;;;;2.47;1.02;;;;;;;0.97;58.71;97321.88;5053439;28;20094;-69
2022/10/31 00:42:29;;;;;;;2.50;1.55;;;;;;;0.85;57.99;97293.19;5036917;28;20047;-68
2022/10/31 00:44:57;;;;;;;1.85;0.90;;;;;;;0.93;57.89;97318.13;5037783;28;20089;-68
2022/10/31 00:47:23;;;;;;;4.72;0.90;;;;;;;0.98;58.51;97333.09;5033463;28;20497;-68
2022/10/31 00:49:48;;;;;;;0.68;0.68;;;;;;;0.97;59.12;97340.16;5033596;28;20086;-70
2022/10/31 00:52:14;;;;;;;3.63;0.90;;;;;;;0.89;59.15;97336.03;5033314;28;20115;-68
2022/10/31 00:54:41;;;;;;;1.27;0.70;;;;;;;0.90;59.59;97329.78;5051050;28;20053;-69
2022/10/31 00:57:07;;;;;;;1.65;0.88;;;;;;;0.98;59.56;97327.88;5033180;28;20527;-68
2022/10/31 00:59:33;;;;;;;2.58;0.82;;;;;;;0.93;59.89;97338.19;5000481;28;20053;-68
2022/10/31 01:01:59;;;;;;;3.88;0.77;;;;;;;0.87;60.60;97325.03;5033180;28;20041;-67
2022/10/31 01:04:27;;;;;;;4.00;0.80;;;;;;;0.78;61.97;97329.00;5017362;28;20057;-68
2022/10/31 01:06:54;;;;;;;1.13;0.80;;;;;;;0.78;62.78;97330.81;5032946;28;20447;-68
2022/10/31 01:09:19;;;;;;;0.95;0.80;;;;;;;0.77;63.61;97340.44;5033098;28;20041;-68
2022/10/31 01:11:45;;;;;;;2.90;0.77;;;;;;;0.77;64.22;97342.28;5032954;28;20071;-68
2022/10/31 01:14:11;;;;;;;0.82;0.82;;;;;;;0.63;65.03;97336.44;5049773;28;20506;-68
2022/10/31 01:16:36;;;;;;;0.70;0.70;;;;;;;0.52;66.40;97340.59;5016516;28;20068;-68
2022/10/31 01:19:02;;;;;;;2.17;0.70;;;;;;;0.52;66.87;97339.81;5049398;28;20048;-68
2022/10/31 01:21:29;;;;;;;1.42;0.80;;;;;;;0.43;67.68;97342.75;5016239;28;20128;-69
2022/10/31 01:23:59;;;;;;;1.42;0.90;;;;;;;0.33;69.16;97347.72;5033621;28;20127;-69
2022/10/31 01:26:28;;;;;;;2.70;0.90;;;;;;;0.30;70.42;97350.75;5005190;28;20041;-69
2022/10/31 01:28:58;;;;;;;1.58;0.93;;;;;;;0.19;73.07;97348.91;5019548;28;20072;-68
2022/10/31 01:31:25;;;;;;;;;;;;;;;0.23;72.98;97347.44;5036785;28;20588;-69
2022/10/31 01:33:51;;;;;;;1.65;0.70;;;;;;;0.22;72.83;97332.81;5019740;28;19969;-69
2022/10/31 01:36:25;;;;;;;0.95;0.85;;;;;;;0.19;73.54;97347.06;5036409;28;20135;-68
2022/10/31 01:38:53;;;;;;;1.10;1.00;;;;;;;0.18;74.56;97337.69;5070473;28;20040;-69
2022/10/31 01:41:25;;;;;;;5.78;1.35;;;;;;;0.14;75.41;97331.31;5052540;28;20032;-70
2022/10/31 01:43:59;;;;;;;0.82;0.82;;;;;;;0.05;75.69;97337.84;5036123;28;20048;-68
2022/10/31 01:46:32;;;;;;;1.65;1.02;;;;;;;0.15;76.57;97339.94;5036094;28;20493;-69
2022/10/31 01:49:00;;;;;;;1.15;0.95;;;;;;;0.15;76.07;97340.72;5036115;28;20088;-69
2022/10/31 01:51:30;;;;;;;2.17;0.90;;;;;;;0.18;76.52;97342.09;5070746;28;20052;-69
2022/10/31 01:53:59;;;;;;;2.33;0.90;;;;;;;0.09;75.98;97343.41;5052578;28;20044;-69
2022/10/31 01:56:25;;;;;;;0.93;0.90;;;;;;;0.17;76.29;97343.09;5035729;28;20302;-70
2022/10/31 01:58:51;;;;;;;1.20;1.10;;;;;;;0.18;76.59;97337.69;5052313;28;20048;-68
2022/10/31 02:01:17;;;;;;;1.05;0.95;;;;;;;0.06;76.49;97341.22;5070449;28;20044;-69
2022/10/31 02:03:45;;;;;;;0.90;0.90;;;;;;;0.19;77.22;97347.06;5056136;28;20459;-69
2022/10/31 02:06:41;;;;;;;3.85;1.10;;;;;;;0.22;77.34;97349.25;5039262;28;20036;-69
2022/10/31 02:09:08;;;;;;;1.88;0.93;;;;;;;0.18;76.85;97345.50;5048953;28;20176;-69
2022/10/31 02:11:34;;;;;;;1.60;0.95;;;;;;;0.19;77.23;97344.47;5055810;28;20079;-68
2022/10/31 02:14:01;;;;;;;0.70;0.70;;;;;;;0.21;77.75;97345.06;5006933;28;20041;-67
2022/10/31 02:16:47;;;;;;;2.40;0.85;;;;;;;0.18;77.09;97344.72;5031277;28;20040;-69
2022/10/31 02:19:18;;;;;;;1.67;0.95;;;;;;;0.13;77.68;97342.75;5055484;28;20474;-69
2022/10/31 02:22:21;;;;;;;1.60;1.10;;;;;;;0.14;78.09;97346.94;5022432;28;20072;-68
2022/10/31 02:25:09;;;;;;;4.38;0.95;;;;;;;0.20;78.63;97350.47;5067513;28;20174;-68
2022/10/31 02:28:11;;;;;;;2.05;1.20;;;;;;;0.15;77.80;97343.34;5006509;28;20052;-69
2022/10/31 02:30:55;;;;;;;1.35;1.00;;;;;;;0.11;77.67;97352.59;5023679;28;20505;-69
2022/10/31 02:33:31;;;;;;;1.02;1.00;;;;;;;0.13;78.51;97347.16;5039073;28;20131;-69
2022/10/31 02:36:10;;;;;;;2.75;0.90;;;;;;;0.12;78.60;97348.16;5073378;28;20441;-68
2022/10/31 02:39:20;;;;;;;1.65;1.00;;;;;;;0.20;78.08;97343.44;5073355;28;20059;-68
2022/10/31 02:42:01;;;;;;;1.92;1.00;;;;;;;0.15;78.27;97345.94;5025707;28;20187;-69
2022/10/31 02:44:36;;;;;;;1.05;1.00;;;;;;;0.05;77.86;97343.06;5038950;28;20413;-70
2022/10/31 02:47:06;;;;;;;1.15;1.05;;;;;;;0.04;78.78;97341.47;5055194;28;20071;-69
2022/10/31 02:49:40;;;;;;;2.88;1.10;;;;;;;0.03;77.70;97349.50;5055485;28;20059;-69
2022/10/31 02:52:19;;;;;;;1.80;0.90;;;;;;;0.04;78.57;97351.09;5039854;28;20039;-68
2022/10/31 02:54:47;;;;;;;0.90;0.90;;;;;;;-0.01;78.23;97349.13;5055317;28;20044;-69
2022/10/31 02:57:16;;;;;;;0.80;0.80;;;;;;;0.08;79.09;97354.84;5018622;28;20500;-70
2022/10/31 02:59:47;;;;;;;2.25;1.00;;;;;;;0.06;78.01;97347.25;5035237;28;20057;-70
2022/10/31 03:02:29;;;;;;;5.20;1.25;;;;;;;0.06;78.49;97344.66;5014006;28;20105;-70
2022/10/31 03:05:23;;;;;;;3.55;1.10;;;;;;;0.09;78.14;97351.22;5038601;28;20049;-69
2022/10/31 03:08:16;;;;;;;1.17;1.00;;;;;;;0.03;77.97;97354.69;5038432;28;20479;-68
2022/10/31 03:10:53;;;;;;;1.70;1.10;;;;;;;0.09;77.42;97348.59;5054828;28;20045;-68
2022/10/31 03:13:35;;;;;;;1.73;1.20;;;;;;;0.04;77.08;97341.47;5027411;28;20056;-68
2022/10/31 03:16:13;;;;;;;1.17;1.08;;;;;;;0.09;77.47;97357.25;5018200;28;20128;-71
2022/10/31 03:18:44;;;;;;;2.63;1.20;;;;;;;0.10;77.65;97352.81;5035164;28;20059;-70
2022/10/31 03:21:15;;;;;;;3.45;1.35;;;;;;;0.16;77.11;97351.94;5018001;28;20136;-69
2022/10/31 03:23:43;;;;;;;1.20;1.10;;;;;;;-0.02;77.55;97348.34;5018562;28;20628;-69
2022/10/31 03:26:10;;;;;;;1.40;1.25;;;;;;;0.06;76.83;97352.47;5034719;28;20370;-68
2022/10/31 03:28:46;;;;;;;1.85;1.05;;;;;;;0.02;77.69;97335.69;5034645;28;20079;-68
2022/10/31 03:31:16;;;;;;;2.80;1.38;;;;;;;0.09;77.17;97343.41;5034479;28;20063;-68
2022/10/31 03:33:42;;;;;;;2.22;1.30;;;;;;;0.20;77.04;97347.88;5034631;28;20041;-68
2022/10/31 03:36:11;;;;;;;4.38;1.67;;;;;;;0.16;77.37;97349.34;5034434;28;20449;-69
2022/10/31 03:38:37;;;;;;;1.42;1.08;;;;;;;0.14;76.86;97346.16;5018394;28;20047;-68
2022/10/31 03:41:06;;;;;;;3.15;1.30;;;;;;;0.21;78.12;97344.25;5017536;28;20045;-68
2022/10/31 03:43:33;;;;;;;1.42;1.20;;;;;;;0.19;77.22;97348.91;5018040;28;20140;-69
2022/10/31 03:45:59;;;;;;;1.88;1.30;;;;;;;0.26;77.29;97352.19;5034035;28;20040;-68
2022/10/31 03:48:24;;;;;;;1.10;1.00;;;;;;;0.31;77.15;97362.75;5051012;28;20095;-68
2022/10/31 03:50:52;;;;;;;2.58;1.10;;;;;;;0.27;76.84;97347.81;5034161;28;20044;-68
2022/10/31 03:53:29;;;;;;;1.45;1.33;;;;;;;0.18;76.72;97347.31;5034606;28;20524;-70
2022/10/31 03:56:06;;;;;;;5.07;1.30;;;;;;;0.20;76.56;97361.69;5000732;28;20196;-69
2022/10/31 03:58:37;;;;;;;2.17;1.40;;;;;;;0.35;77.62;97363.91;4997830;28;20055;-71
2022/10/31 04:01:06;;;;;;;1.30;1.00;;;;;;;0.39;77.06;97370.28;5030480;28;20045;-70
2022/10/31 04:03:33;;;;;;;3.50;1.20;;;;;;;0.32;76.76;97363.56;5017695;28;20056;-69
2022/10/31 04:06:04;;;;;;;2.72;1.40;;;;;;;0.30;77.33;97371.59;5017611;28;20075;-69
2022/10/31 04:08:31;;;;;;;;;;;;;;;0.29;76.89;97369.19;4998022;28;20075;-70
2022/10/31 04:10:59;;;;;;;1.38;1.20;;;;;;;0.26;78.35;97380.84;5032818;28;19947;-69
2022/10/31 04:13:29;;;;;;;1.10;1.00;;;;;;;0.29;78.33;97377.81;5033430;28;20040;-69
2022/10/31 04:16:03;;;;;;;4.28;1.10;;;;;;;0.29;77.89;97382.22;4998959;28;20056;-69
2022/10/31 04:18:29;;;;;;;1.85;1.67;;;;;;;0.30;78.60;97374.22;5000755;28;20048;-69
2022/10/31 04:21:04;;;;;;;5.05;2.00;;;;;;;0.31;77.76;97382.81;5013497;28;20099;-68
2022/10/31 04:23:30;;;;;;;4.57;1.63;;;;;;;0.16;77.62;97385.81;4979284;28;20485;-73
2022/10/31 04:25:58;;;;;;;3.55;1.55;;;;;;;0.20;77.82;97387.75;4995723;28;20482;-74
2022/10/31 04:28:23;;;;;;;7.18;2.08;;;;;;;0.23;78.82;97391.72;4992169;28;20091;-72
2022/10/31 04:30:51;;;;;;;4.00;1.67;;;;;;;0.30;78.26;97396.88;4981249;28;20108;-73
2022/10/31 04:33:17;;;;;;;3.10;1.50;;;;;;;0.23;77.68;97397.72;5033499;28;20052;-70
2022/10/31 04:35:45;;;;;;;3.85;1.63;;;;;;;0.13;78.62;97387.03;5033455;28;20049;-72
2022/10/31 04:38:11;;;;;;;3.78;1.40;;;;;;;0.27;78.01;97402.53;5016865;28;20051;-71
2022/10/31 04:40:38;;;;;;;2.33;1.40;;;;;;;0.20;79.66;97410.41;5021235;28;20080;-69
2022/10/31 04:43:33;;;;;;;5.93;1.65;;;;;;;0.20;78.45;97415.63;4968848;28;20054;-67
2022/10/31 04:46:00;;;;;;;3.65;1.67;;;;;;;0.12;78.57;97411.50;4995176;28;20078;-72
2022/10/31 04:48:28;;;;;;;1.42;1.33;;;;;;;0.14;78.86;97413.88;5033381;28;20045;-71
2022/10/31 04:51:00;;;;;;;1.77;1.60;;;;;;;0.18;78.45;97410.63;5050751;28;20099;-72
2022/10/31 04:53:27;;;;;;;3.22;1.45;;;;;;;0.05;78.42;97408.16;5033177;28;20041;-69
2022/10/31 04:56:15;;;;;;;2.03;1.38;;;;;;;0.11;79.46;97407.28;5035723;28;20048;-68
2022/10/31 04:58:44;;;;;;;2.25;1.60;;;;;;;0.25;78.79;97422.78;5047629;28;20048;-68
2022/10/31 05:01:10;;;;;;;3.28;1.88;;;;;;;0.21;78.34;97428.44;5064483;28;20040;-68
2022/10/31 05:03:39;;;;;;;2.65;1.65;;;;;;;0.18;78.78;97425.47;5048334;28;20178;-69
2022/10/31 05:06:05;;;;;;;2.70;1.60;;;;;;;0.20;78.96;97444.28;5015505;28;20064;-69
2022/10/31 05:08:31;;;;;;;3.33;1.67;;;;;;;0.15;78.86;97447.56;5048315;28;20453;-69
2022/10/31 05:11:02;;;;;;;1.95;1.27;;;;;;;0.14;79.53;97445.94;5015326;28;20098;-68
2022/10/31 05:13:28;;;;;;;2.95;1.52;;;;;;;0.12;79.49;97442.78;5014116;28;20044;-75
2022/10/31 05:16:13;;;;;;;3.25;1.15;;;;;;;0.08;79.63;97452.03;5014951;28;20037;-69
2022/10/31 05:18:58;;;;;;;2.30;1.23;;;;;;;0.08;79.34;97462.44;5067446;28;20045;-70
2022/10/31 05:21:42;;;;;;;0.93;0.93;;;;;;;0.11;79.50;97471.63;5050237;28;20583;-65
2022/10/31 05:24:10;;;;;;;1.55;1.10;;;;;;;0.17;79.05;97468.94;5029796;28;20084;-66
2022/10/31 05:26:37;;;;;;;1.10;1.00;;;;;;;0.13;79.73;97477.44;5014739;28;20099;-67
2022/10/31 05:29:03;;;;;;;2.72;1.20;;;;;;;0.17;79.99;97495.00;5028462;28;20441;-66
2022/10/31 05:31:29;;;;;;;1.80;1.00;;;;;;;0.27;80.01;97491.13;5028937;28;20110;-66
2022/10/31 05:33:55;;;;;;;1.45;1.10;;;;;;;0.21;79.47;97504.00;5010904;28;20490;-67
2022/10/31 05:36:39;;;;;;;1.90;1.30;;;;;;;0.28;79.83;97496.09;5022302;28;20601;-66
2022/10/31 05:39:15;;;;;;;1.65;1.50;;;;;;;0.34;79.74;97504.88;5034640;28;20552;-66
2022/10/31 05:41:45;;;;;;;2.90;1.58;;;;;;;0.27;79.99;97507.56;5034050;28;20048;-66
2022/10/31 05:44:16;;;;;;;2.20;1.25;;;;;;;0.28;79.73;97514.34;5052210;28;20055;-66
2022/10/31 05:47:07;;;;;;;2.58;1.70;;;;;;;0.33;80.26;97524.94;5027549;28;20041;-65
2022/10/31 05:50:09;;;;;;;2.08;1.63;;;;;;;0.31;80.08;97529.56;4975085;28;20567;-66
2022/10/31 05:52:35;;;;;;;2.88;2.15;;;;;;;0.38;79.83;97535.50;5050182;28;20057;-65
2022/10/31 05:55:09;;;;;;;2.50;1.90;;;;;;;0.42;80.59;97552.28;5034727;28;20596;-66
2022/10/31 05:57:37;;;;;;;5.20;1.90;;;;;;;0.42;80.46;97541.88;5033405;28;20068;-66
2022/10/31 06:00:04;;;;;;;5.78;1.95;;;;;;;0.44;80.63;97565.91;5050521;28;20083;-67
2022/10/31 06:02:34;;;;;;;2.92;2.58;;;;;;;0.48;80.34;97561.06;5051344;28;20041;-66
2022/10/31 06:05:18;;;;;;;3.33;1.50;;;;;;;0.47;80.32;97575.09;5051141;28;20584;-67
2022/10/31 06:07:44;;;;;;;4.13;2.00;;;;;;;0.48;81.14;97584.53;5026631;28;20055;-66
2022/10/31 06:10:10;;;;;;;4.35;2.17;;;;;;;0.54;81.44;97586.25;5031883;28;20120;-66
2022/10/31 06:12:38;;;;;;;2.85;1.92;;;;;;;0.71;80.91;97594.31;5023401;28;20049;-65
2022/10/31 06:15:21;;;;;;;1.35;1.25;;;;;;;0.64;80.89;97599.56;5011067;28;20087;-65
2022/10/31 06:17:57;;;;;;;2.53;1.55;;;;;;;0.61;81.40;97613.03;5027337;28;20089;-67
2022/10/31 06:20:24;;;;;;;5.00;1.83;;;;;;;0.63;82.03;97626.69;5052964;28;20198;-67
2022/10/31 06:22:57;;;;;;;2.05;1.60;;;;;;;0.68;82.05;97634.66;5035788;28;20574;-66
2022/10/31 06:25:24;;;;;;;4.22;1.50;;;;;;;0.74;81.92;97637.41;5051078;28;20074;-66
2022/10/31 06:27:51;;;;;;;2.88;1.63;;;;;;;0.80;82.29;97642.56;5036412;28;20443;-64
2022/10/31 06:30:18;;;;;;;2.97;1.65;;;;;;;0.79;82.70;97647.97;5027719;28;20037;-66
2022/10/31 06:32:46;;;;;;;6.38;1.73;;;;;;;0.81;82.12;97651.16;5039359;28;20094;-68
2022/10/31 06:35:12;;;;;;;1.30;1.20;;;;;;;0.82;82.35;97652.75;5001777;28;20033;-70
2022/10/31 06:37:39;;;;;;;1.98;1.20;;;;;;;0.88;82.12;97660.53;5030483;28;20488;-71
2022/10/31 06:40:27;;;;;;;1.38;1.27;;;;;;;1.03;81.96;97656.75;5015063;28;20506;-70
2022/10/31 06:43:16;;;;;;;2.15;1.40;;;;;;;0.98;81.41;97657.41;5049710;28;20056;-66
2022/10/31 06:45:42;;;;;;;1.42;1.30;;;;;;;1.14;81.74;97677.69;5035609;28;20052;-67
2022/10/31 06:48:23;;;;;;;;;;;;;;;1.20;81.46;97688.28;5035368;28;20053;-66
2022/10/31 06:51:11;;;;;;;2.05;1.13;;;;;;;1.18;81.18;97682.47;4991239;28;19935;-69
2022/10/31 06:53:37;;;;;;;1.58;1.30;;;;;;;1.11;80.72;97700.81;5004341;28;20444;-67
2022/10/31 06:56:04;;;;;;;1.27;1.15;;;;;;;1.10;80.55;97709.66;4986508;28;20052;-67
2022/10/31 06:58:35;;;;;;;1.98;1.15;;;;;;;1.17;80.08;97699.94;4982183;28;20129;-67
2022/10/31 07:01:04;;;;;;;1.25;1.00;;;;;;;1.30;79.24;97714.66;4997571;28;20538;-67
2022/10/31 07:03:30;;;;;;;1.40;1.08;;;;;;;1.27;78.95;97746.44;4964513;28;20042;-66
2022/10/31 07:05:56;;;;;;;1.65;1.00;;;;;;;1.31;79.54;97734.53;4967680;28;20045;-68
2022/10/31 07:08:23;;;;;;;0.88;0.85;;;;;;;1.35;79.41;97744.34;4956190;28;20053;-66
2022/10/31 07:10:55;;;;;;;2.38;1.20;;;;;;;1.36;79.67;97750.34;4956906;28;20085;-66
2022/10/31 07:13:25;;;;;;;1.30;1.20;;;;;;;1.42;80.39;97762.53;4988648;28;20499;-65
2022/10/31 07:15:58;;;;;;;1.75;1.00;;;;;;;1.36;80.44;97761.59;4974945;28;20590;-69
2022/10/31 07:18:24;;;;;;;;;;;;;;;1.30;81.21;97772.91;5010142;28;20092;-67
2022/10/31 07:20:52;;;;;;;0.60;0.60;;;;;;;1.29;81.35;97780.94;5026083;28;19944;-67
2022/10/31 07:23:17;;;;;;;1.15;0.93;;;;;;;1.43;81.44;97785.00;5031491;28;20048;-69
2022/10/31 07:25:54;;;;;;;2.40;1.08;;;;;;;1.51;81.46;97799.59;5049043;28;20528;-66
2022/10/31 07:28:24;;;;;;;1.85;0.82;;;;;;;1.43;80.92;97792.84;5001968;28;20101;-67
2022/10/31 07:30:51;;;;;;;2.47;0.90;;;;;;;1.39;81.18;97807.34;5048877;28;20159;-66
2022/10/31 07:33:19;;;;;;;0.55;0.55;;;;;;;1.18;81.15;97805.13;5032553;28;20131;-69
2022/10/31 07:36:15;;;;;;;0.80;0.80;;;;;;;1.38;81.51;97824.00;4950433;28;20420;-69
2022/10/31 07:38:43;;;;;;;2.88;1.00;;;;;;;1.41;82.11;97818.34;5049834;28;20498;-67
2022/10/31 07:41:13;;;;;;;3.35;0.80;;;;;;;1.51;80.89;97846.59;5032483;28;20077;-66
2022/10/31 07:43:45;;;;;;;1.38;0.80;;;;;;;1.49;80.46;97852.03;5034770;28;20048;-67
2022/10/31 07:46:17;;;;;;;1.15;0.70;;;;;;;1.58;80.22;97860.38;5034221;28;20036;-69
2022/10/31 07:49:01;;;;;;;0.80;0.80;;;;;;;1.61;80.24;97856.53;5033875;28;20113;-69
2022/10/31 07:52:02;;;;;;;1.70;0.88;;;;;;;1.69;78.89;97856.25;5023525;28;20053;-69
2022/10/31 07:54:47;;;;;;;1.00;0.90;;;;;;;1.68;79.03;97865.91;5006826;28;20049;-68
2022/10/31 07:57:21;;;;;;;0.90;0.70;;;;;;;1.72;77.47;97876.72;5008221;28;20314;-69
2022/10/31 07:59:47;;;;;;;1.05;0.95;;;;;;;1.76;77.89;97862.97;5023408;28;20077;-68
2022/10/31 08:02:13;;;;;;;1.08;0.98;;;;;;;1.92;78.35;97877.31;5006935;28;20132;-68
2022/10/31 08:04:59;;;;;;;0.82;0.82;;;;;;;2.00;76.52;97890.06;5023580;28;20041;-66
2022/10/31 08:07:29;;;;;;;;;;;;;;;1.99;75.98;97890.28;5008297;28;20164;-67
2022/10/31 08:10:01;;;;;;;2.58;1.00;;;;;;;1.95;75.62;97886.53;5024031;28;19928;-67
2022/10/31 08:12:30;;;;;;;2.60;1.20;;;;;;;1.98;75.78;97894.72;5006447;28;20053;-69
2022/10/31 08:14:56;;;;;;;1.00;0.90;;;;;;;2.02;74.91;97895.88;5024846;28;20119;-68
2022/10/31 08:17:22;;;;;;;1.52;1.00;;;;;;;2.18;74.18;97899.72;5007807;28;20049;-68
2022/10/31 08:19:54;;;;;;;3.97;1.45;;;;;;;2.11;74.68;97900.81;5023183;28;20121;-68
2022/10/31 08:22:25;;;;;;;1.52;1.38;;;;;;;2.23;75.58;97899.84;5031311;28;20052;-68
2022/10/31 08:24:51;;;;;;;1.30;0.90;;;;;;;2.25;73.81;97905.66;5068126;28;20051;-68
2022/10/31 08:27:17;;;;;;;1.05;0.98;;;;;;;2.24;73.60;97924.19;5033275;28;20036;-69
2022/10/31 08:29:43;;;;;;;2.00;1.23;;;;;;;2.32;74.35;97916.03;5050652;28;20049;-68
2022/10/31 08:32:08;;;;;;;1.20;1.10;;;;;;;2.38;73.55;97930.88;5050410;28;20056;-69
2022/10/31 08:35:01;;;;;;;1.58;1.10;;;;;;;2.28;73.41;97943.63;5005373;28;20139;-67
2022/10/31 08:37:36;;;;;;;2.03;1.30;;;;;;;2.30;73.79;97944.22;5065783;28;20166;-69
2022/10/31 08:40:04;;;;;;;2.75;1.30;;;;;;;2.33;74.84;97951.63;5066370;28;20051;-68
2022/10/31 08:42:33;;;;;;;2.63;1.33;;;;;;;2.21;75.64;97962.03;5031731;28;20056;-67
2022/10/31 08:44:59;;;;;;;5.53;1.50;;;;;;;2.17;76.84;97968.69;5031091;28;20520;-68
2022/10/31 08:47:27;;;;;;;1.42;1.30;;;;;;;2.08;77.97;97962.16;5031988;28;20056;-68
2022/10/31 08:49:54;;;;;;;2.40;1.48;;;;;;;1.98;78.36;97978.34;5014763;28;20040;-68
2022/10/31 08:52:25;;;;;;;1.70;1.35;;;;;;;1.90;77.99;97970.78;5031772;28;20044;-73
2022/10/31 08:54:55;;;;;;;1.35;1.17;;;;;;;1.91;77.60;97964.56;5033546;28;20102;-71
2022/10/31 08:57:39;;;;;;;1.73;1.50;;;;;;;2.08;77.83;97964.75;5049509;28;20493;-70
2022/10/31 09:00:06;;;;;;;1.48;1.30;;;;;;;2.11;73.52;97974.78;5048953;28;20054;-69
2022/10/31 09:03:00;;;;;;;1.77;1.40;;;;;;;1.94;69.17;97971.97;5052499;28;20059;-68
2022/10/31 09:05:28;;;;;;;5.78;2.00;;;;;;;2.12;70.96;97980.81;5017223;28;20059;-71
2022/10/31 09:08:02;;;;;;;2.75;1.75;;;;;;;2.23;70.30;97980.09;5030924;28;20291;-72
2022/10/31 09:10:30;;;;;;;2.38;1.33;;;;;;;2.41;70.38;97982.72;5031989;28;20519;-72
2022/10/31 09:12:57;;;;;;;1.45;1.13;;;;;;;2.56;69.90;98005.06;5011656;28;20041;-71
2022/10/31 09:15:43;;;;;;;1.83;1.10;;;;;;;2.42;70.49;97986.94;5011916;28;20049;-70
2022/10/31 09:18:21;;;;;;;1.95;1.15;;;;;;;2.46;70.96;97997.75;5037303;28;20291;-71
2022/10/31 09:20:54;;;;;;;1.00;0.90;;;;;;;2.64;70.45;97991.69;5019434;28;20048;-70
2022/10/31 09:23:22;;;;;;;1.23;1.02;;;;;;;2.84;69.68;97999.31;5034073;28;20068;-70
2022/10/31 09:25:50;;;;;;;1.02;0.95;;;;;;;2.81;68.26;98003.16;5035619;28;20060;-74
2022/10/31 09:28:42;;;;;;;0.82;0.82;;;;;;;2.82;69.59;98006.56;5032756;28;20048;-72
2022/10/31 09:31:12;;;;;;;1.02;0.90;;;;;;;2.89;70.39;98009.91;5016421;28;20053;-71
2022/10/31 09:33:56;;;;;;;1.20;1.10;;;;;;;2.90;70.77;98007.06;5053034;28;20056;-71
2022/10/31 09:36:34;;;;;;;0.80;0.80;;;;;;;2.77;72.65;98032.63;5052231;28;20073;-69
2022/10/31 09:39:02;;;;;;;2.10;1.33;;;;;;;2.59;74.10;98041.25;5034747;28;20083;-69
2022/10/31 09:41:53;;;;;;;1.33;1.17;;;;;;;2.63;73.76;98032.75;5038002;28;20445;-71
2022/10/31 09:44:41;;;;;;;3.08;1.50;;;;;;;2.69;73.88;98042.34;5018066;28;20399;-71
2022/10/31 09:47:41;;;;;;;1.10;0.73;;;;;;;2.54;70.95;98054.22;5035858;28;20051;-70
2022/10/31 09:50:41;;;;;;;0.88;0.60;;;;;;;2.55;70.71;98055.81;5052046;28;20110;-71
2022/10/31 09:53:37;;;;;;;0.80;0.80;;;;;;;2.72;70.89;98062.84;5030882;28;20498;-69
2022/10/31 09:56:07;;;;;;;0.73;0.70;;;;;;;2.77;70.29;98096.22;4981375;28;20160;-69
2022/10/31 09:58:40;;;;;;;0.85;0.80;;;;;;;2.73;71.38;98082.75;5026512;28;20083;-70
2022/10/31 10:01:06;;;;;;;1.27;1.08;;;;;;;2.94;71.42;98099.03;5037516;28;20059;-70
2022/10/31 10:03:44;;;;;;;0.95;0.90;;;;;;;2.87;73.48;98112.19;5038784;28;20041;-69
2022/10/31 10:06:34;;;;;;;1.38;1.25;;;;;;;2.70;74.20;98104.13;5031957;28;20052;-70
2022/10/31 10:09:29;;;;;;;1.33;1.23;;;;;;;2.96;73.84;98117.94;5043942;28;20551;-70
2022/10/31 10:12:53;;;;;;;1.15;0.80;;;;;;;2.90;71.22;98109.13;5056453;28;20051;-70
2022/10/31 10:15:51;;;;;;;0.80;0.80;;;;;;;2.93;70.75;98128.84;5014149;28;20190;-72
2022/10/31 10:18:57;;;;;;;1.13;1.00;;;;;;;2.87;71.13;98134.97;5036266;28;20052;-71
2022/10/31 10:21:34;;;;;;;2.85;1.02;;;;;;;2.96;71.95;98129.19;5022110;28;20183;-71
2022/10/31 10:24:12;;;;;;;1.13;1.08;;;;;;;3.03;72.79;98131.78;5071393;28;20040;-69
2022/10/31 10:26:43;;;;;;;1.65;1.35;;;;;;;2.95;73.29;98125.00;5054178;28;20052;-69
2022/10/31 10:29:26;;;;;;;;;;;;;;;3.00;72.29;98129.59;5037715;28;20083;-69
2022/10/31 10:31:52;;;;;;;1.70;1.60;;;;;;;3.05;71.83;98128.91;5033518;28;19932;-69
2022/10/31 10:34:23;;;;;;;2.03;1.52;;;;;;;3.05;72.23;98132.31;5037298;28;20064;-69
2022/10/31 10:37:08;;;;;;;1.42;1.13;;;;;;;3.12;72.27;98124.41;5054052;28;20086;-69
2022/10/31 10:39:41;;;;;;;0.85;0.85;;;;;;;3.02;70.99;98138.00;5052354;28;20402;-70
2022/10/31 10:47:42;;;;;;;1.52;1.02;;;;;;;3.08;70.23;98131.88;5021094;28;20075;-70
2022/10/31 10:50:22;;;;;;;1.15;1.02;;;;;;;2.96;70.81;98141.50;5020381;28;20041;-71
2022/10/31 10:52:59;;;;;;;1.63;1.40;;;;;;;3.10;70.49;98126.44;5052913;28;20131;-70
2022/10/31 10:55:30;;;;;;;2.40;1.98;;;;;;;3.11;69.96;98118.34;5072251;28;20126;-69
2022/10/31 10:58:00;;;;;;;2.47;1.55;;;;;;;3.13;70.21;98097.19;5052852;28;20032;-69
2022/10/31 11:00:27;;;;;;;1.92;1.05;;;;;;;3.12;70.97;98113.94;5037871;28;20048;-69
2022/10/31 11:02:53;;;;;;;0.80;0.80;;;;;;;3.06;69.50;98122.66;5051034;28;20056;-70
2022/10/31 11:05:53;;;;;;;1.20;1.10;;;;;;;3.05;70.59;98114.00;5034523;28;20048;-72
2022/10/31 11:08:29;;;;;;;2.75;1.73;;;;;;;3.00;70.82;98139.22;5025297;28;20080;-70
2022/10/31 11:11:08;;;;;;;1.50;1.40;;;;;;;2.94;70.18;98146.13;5032739;28;20080;-70
2022/10/31 11:13:35;;;;;;;4.10;1.60;;;;;;;2.95;69.96;98151.16;5049124;28;20414;-69
2022/10/31 11:16:09;;;;;;;2.08;1.88;;;;;;;3.07;70.35;98142.59;5048669;28;20045;-69
2022/10/31 11:18:39;;;;;;;1.77;1.63;;;;;;;3.04;70.25;98146.44;5049073;28;20051;-70
2022/10/31 11:21:05;;;;;;;1.00;1.00;;;;;;;2.93;70.04;98150.59;5030786;28;20052;-71
2022/10/31 11:23:32;;;;;;;2.80;1.38;;;;;;;2.79;69.90;98170.06;5060044;28;20090;-70
2022/10/31 11:26:03;;;;;;;2.55;1.50;;;;;;;2.69;71.06;98156.69;5049786;28;20068;-70
2022/10/31 11:28:32;;;;;;;1.98;1.30;;;;;;;2.72;71.42;98156.25;5049443;28;20036;-71
2022/10/31 11:30:59;;;;;;;2.83;1.40;;;;;;;2.76;71.17;98138.28;5025164;28;20124;-72
2022/10/31 11:33:32;;;;;;;3.65;2.30;;;;;;;2.71;71.62;98149.44;5029458;28;20055;-67
2022/10/31 11:36:00;;;;;;;1.60;1.50;;;;;;;2.69;71.01;98146.22;5043191;28;20056;-73
2022/10/31 11:38:35;;;;;;;3.08;1.92;;;;;;;2.65;71.23;98131.97;5030661;28;20512;-71
2022/10/31 11:41:12;;;;;;;1.70;1.40;;;;;;;2.77;71.19;98145.94;5029063;28;20502;-73
2022/10/31 11:43:38;;;;;;;1.52;1.40;;;;;;;2.81;71.45;98165.41;5027638;28;20060;-74
2022/10/31 11:46:14;;;;;;;1.70;1.60;;;;;;;2.84;71.30;98164.19;5031493;28;20466;-73
2022/10/31 11:48:39;;;;;;;2.05;1.55;;;;;;;2.80;71.25;98161.22;5026396;28;20043;-73
2022/10/31 11:51:05;;;;;;;3.30;2.05;;;;;;;2.80;71.94;98160.41;5047355;28;20037;-73
2022/10/31 11:53:34;;;;;;;1.25;1.15;;;;;;;2.72;71.63;98145.78;5048449;28;20445;-71
2022/10/31 11:56:13;;;;;;;3.70;1.80;;;;;;;2.78;72.21;98163.22;5010406;28;20490;-73
2022/10/31 11:58:39;;;;;;;2.65;1.92;;;;;;;2.72;72.63;98157.03;5049027;28;20123;-73
2022/10/31 12:01:05;;;;;;;2.80;1.73;;;;;;;2.76;72.53;98160.03;5013300;28;20033;-70
2022/10/31 12:03:55;;;;;;;3.33;1.77;;;;;;;2.77;72.57;98134.69;5030617;28;20045;-71
2022/10/31 12:06:23;;;;;;;4.10;2.53;;;;;;;2.92;72.50;98167.31;5046505;28;20052;-73
2022/10/31 12:08:49;;;;;;;2.95;2.00;;;;;;;2.86;72.81;98165.56;5014723;28;20037;-72
2022/10/31 12:11:36;;;;;;;2.42;1.80;;;;;;;2.89;72.95;98178.22;5013563;28;20488;-72
2022/10/31 12:14:31;;;;;;;2.47;1.60;;;;;;;2.86;72.69;98170.81;5027439;28;20048;-72
2022/10/31 12:17:11;;;;;;;3.80;1.92;;;;;;;2.84;73.31;98175.44;5030689;28;20120;-74